sensor_id;sensor_type;location;lat;lon;timestamp;P1;durP1;ratioP1;P2;durP2;ratioP2
69906;SDS011;57190;47.918;8.112;2022-07-29T00:00:14;3.03;;;2.83;;
69906;SDS011;57190;47.918;8.112;2022-07-29T00:02:39;3.20;;;2.88;;
69906;SDS011;57190;47.918;8.112;2022-07-29T00:05:05;2.50;;;2.40;;
69906;SDS011;57190;47.918;8.112;2022-07-29T00:07:32;3.22;;;3.03;;
69906;SDS011;57190;47.918;8.112;2022-07-29T00:09:58;3.35;;;3.15;;
69906;SDS011;57190;47.918;8.112;2022-07-29T00:12:24;3.10;;;2.80;;
69906;SDS011;57190;47.918;8.112;2022-07-29T00:14:50;2.85;;;2.65;;
69906;SDS011;57190;47.918;8.112;2022-07-29T00:17:16;3.50;;;3.15;;
69906;SDS011;57190;47.918;8.112;2022-07-29T00:19:42;3.30;;;3.10;;
69906;SDS011;57190;47.918;8.112;2022-07-29T00:22:08;3.75;;;3.45;;
69906;SDS011;57190;47.918;8.112;2022-07-29T00:24:33;3.47;;;3.28;;
69906;SDS011;57190;47.918;8.112;2022-07-29T00:26:59;3.38;;;3.17;;
69906;SDS011;57190;47.918;8.112;2022-07-29T00:29:24;3.30;;;3.00;;
69906;SDS011;57190;47.918;8.112;2022-07-29T00:31:50;3.25;;;3.05;;
69906;SDS011;57190;47.918;8.112;2022-07-29T00:34:16;3.42;;;3.20;;
69906;SDS011;57190;47.918;8.112;2022-07-29T00:37:00;3.45;;;3.22;;
69906;SDS011;57190;47.918;8.112;2022-07-29T00:39:26;3.45;;;3.25;;
69906;SDS011;57190;47.918;8.112;2022-07-29T00:41:51;3.53;;;3.22;;
69906;SDS011;57190;47.918;8.112;2022-07-29T00:44:17;3.50;;;3.30;;
69906;SDS011;57190;47.918;8.112;2022-07-29T00:46:43;3.58;;;3.33;;
69906;SDS011;57190;47.918;8.112;2022-07-29T00:49:08;3.35;;;3.15;;
69906;SDS011;57190;47.918;8.112;2022-07-29T00:51:35;3.50;;;3.30;;
69906;SDS011;57190;47.918;8.112;2022-07-29T00:54:02;3.65;;;3.45;;
69906;SDS011;57190;47.918;8.112;2022-07-29T00:56:29;3.33;;;3.13;;
69906;SDS011;57190;47.918;8.112;2022-07-29T00:58:56;3.97;;;3.42;;
69906;SDS011;57190;47.918;8.112;2022-07-29T01:01:23;3.47;;;3.28;;
69906;SDS011;57190;47.918;8.112;2022-07-29T01:03:49;3.60;;;3.30;;
69906;SDS011;57190;47.918;8.112;2022-07-29T01:06:15;3.70;;;3.50;;
69906;SDS011;57190;47.918;8.112;2022-07-29T01:08:45;4.10;;;3.80;;
69906;SDS011;57190;47.918;8.112;2022-07-29T01:11:12;3.60;;;3.35;;
69906;SDS011;57190;47.918;8.112;2022-07-29T01:13:40;3.63;;;3.42;;
69906;SDS011;57190;47.918;8.112;2022-07-29T01:16:13;4.03;;;3.72;;
69906;SDS011;57190;47.918;8.112;2022-07-29T01:18:44;3.72;;;3.42;;
69906;SDS011;57190;47.918;8.112;2022-07-29T01:21:27;3.50;;;3.30;;
69906;SDS011;57190;47.918;8.112;2022-07-29T01:24:11;4.38;;;3.60;;
69906;SDS011;57190;47.918;8.112;2022-07-29T01:29:55;3.30;;;3.10;;
69906;SDS011;57190;47.918;8.112;2022-07-29T01:32:24;3.50;;;3.30;;
69906;SDS011;57190;47.918;8.112;2022-07-29T01:34:54;3.50;;;3.30;;
69906;SDS011;57190;47.918;8.112;2022-07-29T01:37:38;3.45;;;3.25;;
69906;SDS011;57190;47.918;8.112;2022-07-29T01:40:11;3.67;;;3.38;;
69906;SDS011;57190;47.918;8.112;2022-07-29T01:42:44;3.78;;;3.47;;
69906;SDS011;57190;47.918;8.112;2022-07-29T01:48:03;3.47;;;3.28;;
69906;SDS011;57190;47.918;8.112;2022-07-29T01:50:42;3.45;;;3.25;;
69906;SDS011;57190;47.918;8.112;2022-07-29T01:53:12;5.60;;;4.03;;
69906;SDS011;57190;47.918;8.112;2022-07-29T01:55:46;3.58;;;3.35;;
69906;SDS011;57190;47.918;8.112;2022-07-29T01:58:14;3.47;;;3.15;;
69906;SDS011;57190;47.918;8.112;2022-07-29T02:00:42;3.42;;;3.22;;
69906;SDS011;57190;47.918;8.112;2022-07-29T02:03:11;4.88;;;4.40;;
69906;SDS011;57190;47.918;8.112;2022-07-29T02:05:39;3.45;;;3.15;;
69906;SDS011;57190;47.918;8.112;2022-07-29T02:08:08;3.78;;;3.47;;
69906;SDS011;57190;47.918;8.112;2022-07-29T02:10:36;3.65;;;3.22;;
69906;SDS011;57190;47.918;8.112;2022-07-29T02:13:04;3.80;;;3.50;;
69906;SDS011;57190;47.918;8.112;2022-07-29T02:15:32;3.63;;;3.33;;
69906;SDS011;57190;47.918;8.112;2022-07-29T02:18:09;3.42;;;3.20;;
69906;SDS011;57190;47.918;8.112;2022-07-29T02:20:39;3.40;;;3.13;;
69906;SDS011;57190;47.918;8.112;2022-07-29T02:23:09;3.55;;;3.35;;
69906;SDS011;57190;47.918;8.112;2022-07-29T02:25:37;3.67;;;3.40;;
69906;SDS011;57190;47.918;8.112;2022-07-29T02:28:02;3.88;;;3.58;;
69906;SDS011;57190;47.918;8.112;2022-07-29T02:30:30;3.60;;;3.30;;
69906;SDS011;57190;47.918;8.112;2022-07-29T02:32:58;3.30;;;3.10;;
69906;SDS011;57190;47.918;8.112;2022-07-29T02:35:24;3.50;;;3.20;;
69906;SDS011;57190;47.918;8.112;2022-07-29T02:37:50;3.42;;;3.22;;
69906;SDS011;57190;47.918;8.112;2022-07-29T02:40:37;3.33;;;3.13;;
69906;SDS011;57190;47.918;8.112;2022-07-29T02:43:05;3.40;;;3.20;;
69906;SDS011;57190;47.918;8.112;2022-07-29T02:45:32;3.45;;;3.25;;
69906;SDS011;57190;47.918;8.112;2022-07-29T02:47:59;4.28;;;3.15;;
69906;SDS011;57190;47.918;8.112;2022-07-29T02:50:32;3.65;;;3.35;;
69906;SDS011;57190;47.918;8.112;2022-07-29T02:53:08;3.63;;;3.33;;
69906;SDS011;57190;47.918;8.112;2022-07-29T02:55:38;3.65;;;3.35;;
69906;SDS011;57190;47.918;8.112;2022-07-29T02:58:13;3.58;;;3.28;;
69906;SDS011;57190;47.918;8.112;2022-07-29T03:01:01;3.42;;;3.22;;
69906;SDS011;57190;47.918;8.112;2022-07-29T03:03:34;3.60;;;3.30;;
69906;SDS011;57190;47.918;8.112;2022-07-29T03:06:02;3.40;;;3.20;;
69906;SDS011;57190;47.918;8.112;2022-07-29T03:08:30;3.53;;;3.33;;
69906;SDS011;57190;47.918;8.112;2022-07-29T03:10:57;3.58;;;3.38;;
69906;SDS011;57190;47.918;8.112;2022-07-29T03:13:24;3.00;;;2.80;;
69906;SDS011;57190;47.918;8.112;2022-07-29T03:15:52;3.53;;;3.33;;
69906;SDS011;57190;47.918;8.112;2022-07-29T03:18:18;3.40;;;3.10;;
69906;SDS011;57190;47.918;8.112;2022-07-29T03:20:44;4.07;;;3.60;;
69906;SDS011;57190;47.918;8.112;2022-07-29T03:23:10;3.63;;;3.33;;
69906;SDS011;57190;47.918;8.112;2022-07-29T03:25:36;3.40;;;3.20;;
69906;SDS011;57190;47.918;8.112;2022-07-29T03:28:01;3.80;;;3.50;;
69906;SDS011;57190;47.918;8.112;2022-07-29T03:30:27;3.15;;;2.95;;
69906;SDS011;57190;47.918;8.112;2022-07-29T03:32:55;3.20;;;3.00;;
69906;SDS011;57190;47.918;8.112;2022-07-29T03:35:21;3.00;;;2.80;;
69906;SDS011;57190;47.918;8.112;2022-07-29T03:37:47;3.15;;;2.95;;
69906;SDS011;57190;47.918;8.112;2022-07-29T03:40:17;3.05;;;2.63;;
69906;SDS011;57190;47.918;8.112;2022-07-29T03:42:47;3.53;;;3.33;;
69906;SDS011;57190;47.918;8.112;2022-07-29T03:45:16;3.50;;;3.25;;
69906;SDS011;57190;47.918;8.112;2022-07-29T03:47:45;3.45;;;3.15;;
69906;SDS011;57190;47.918;8.112;2022-07-29T03:50:15;3.88;;;3.47;;
69906;SDS011;57190;47.918;8.112;2022-07-29T03:52:44;3.40;;;3.10;;
69906;SDS011;57190;47.918;8.112;2022-07-29T03:55:10;3.08;;;2.88;;
69906;SDS011;57190;47.918;8.112;2022-07-29T03:57:36;3.40;;;3.10;;
69906;SDS011;57190;47.918;8.112;2022-07-29T04:00:04;3.15;;;2.90;;
69906;SDS011;57190;47.918;8.112;2022-07-29T04:02:32;3.40;;;2.97;;
69906;SDS011;57190;47.918;8.112;2022-07-29T04:04:58;2.60;;;2.40;;
69906;SDS011;57190;47.918;8.112;2022-07-29T04:07:24;3.30;;;3.03;;
69906;SDS011;57190;47.918;8.112;2022-07-29T04:09:49;3.38;;;2.72;;
69906;SDS011;57190;47.918;8.112;2022-07-29T04:12:15;2.90;;;2.70;;
69906;SDS011;57190;47.918;8.112;2022-07-29T04:14:40;2.80;;;2.53;;
69906;SDS011;57190;47.918;8.112;2022-07-29T04:17:06;2.65;;;2.55;;
69906;SDS011;57190;47.918;8.112;2022-07-29T04:19:32;4.57;;;3.03;;
69906;SDS011;57190;47.918;8.112;2022-07-29T04:21:58;3.28;;;2.88;;
69906;SDS011;57190;47.918;8.112;2022-07-29T04:24:24;2.83;;;2.63;;
69906;SDS011;57190;47.918;8.112;2022-07-29T04:26:50;2.78;;;2.60;;
69906;SDS011;57190;47.918;8.112;2022-07-29T04:29:16;3.47;;;3.10;;
69906;SDS011;57190;47.918;8.112;2022-07-29T04:31:42;2.85;;;2.67;;
69906;SDS011;57190;47.918;8.112;2022-07-29T04:34:08;2.78;;;2.58;;
69906;SDS011;57190;47.918;8.112;2022-07-29T04:36:34;2.67;;;2.45;;
69906;SDS011;57190;47.918;8.112;2022-07-29T04:38:59;2.65;;;2.45;;
69906;SDS011;57190;47.918;8.112;2022-07-29T04:41:26;3.15;;;2.88;;
69906;SDS011;57190;47.918;8.112;2022-07-29T04:43:52;3.33;;;2.90;;
69906;SDS011;57190;47.918;8.112;2022-07-29T04:46:17;2.50;;;2.30;;
69906;SDS011;57190;47.918;8.112;2022-07-29T04:48:45;2.85;;;2.53;;
69906;SDS011;57190;47.918;8.112;2022-07-29T04:51:11;3.10;;;2.33;;
69906;SDS011;57190;47.918;8.112;2022-07-29T04:53:37;3.22;;;3.03;;
69906;SDS011;57190;47.918;8.112;2022-07-29T04:56:02;3.75;;;2.53;;
69906;SDS011;57190;47.918;8.112;2022-07-29T04:58:28;3.10;;;2.60;;
69906;SDS011;57190;47.918;8.112;2022-07-29T05:00:54;3.08;;;2.88;;
69906;SDS011;57190;47.918;8.112;2022-07-29T05:03:19;2.70;;;2.50;;
69906;SDS011;57190;47.918;8.112;2022-07-29T05:05:45;2.53;;;2.33;;
69906;SDS011;57190;47.918;8.112;2022-07-29T05:08:10;2.97;;;2.78;;
69906;SDS011;57190;47.918;8.112;2022-07-29T05:10:36;2.40;;;2.20;;
69906;SDS011;57190;47.918;8.112;2022-07-29T05:13:06;2.42;;;2.08;;
69906;SDS011;57190;47.918;8.112;2022-07-29T05:15:36;2.53;;;2.33;;
69906;SDS011;57190;47.918;8.112;2022-07-29T05:18:03;2.78;;;2.25;;
69906;SDS011;57190;47.918;8.112;2022-07-29T05:20:29;2.97;;;2.75;;
69906;SDS011;57190;47.918;8.112;2022-07-29T05:22:56;2.58;;;2.17;;
69906;SDS011;57190;47.918;8.112;2022-07-29T05:25:25;3.08;;;2.50;;
69906;SDS011;57190;47.918;8.112;2022-07-29T05:27:53;2.03;;;1.92;;
69906;SDS011;57190;47.918;8.112;2022-07-29T05:30:20;2.60;;;2.40;;
69906;SDS011;57190;47.918;8.112;2022-07-29T05:32:46;3.47;;;2.17;;
69906;SDS011;57190;47.918;8.112;2022-07-29T05:35:12;1.90;;;1.80;;
69906;SDS011;57190;47.918;8.112;2022-07-29T05:37:39;2.30;;;1.90;;
69906;SDS011;57190;47.918;8.112;2022-07-29T05:40:05;1.80;;;1.70;;
69906;SDS011;57190;47.918;8.112;2022-07-29T05:42:31;2.13;;;1.80;;
69906;SDS011;57190;47.918;8.112;2022-07-29T05:44:57;2.42;;;1.95;;
69906;SDS011;57190;47.918;8.112;2022-07-29T05:47:23;2.28;;;2.17;;
69906;SDS011;57190;47.918;8.112;2022-07-29T05:49:50;2.08;;;1.98;;
69906;SDS011;57190;47.918;8.112;2022-07-29T05:52:16;2.50;;;2.20;;
69906;SDS011;57190;47.918;8.112;2022-07-29T05:54:42;1.98;;;1.88;;
69906;SDS011;57190;47.918;8.112;2022-07-29T05:57:07;2.10;;;1.90;;
69906;SDS011;57190;47.918;8.112;2022-07-29T05:59:36;2.30;;;1.92;;
69906;SDS011;57190;47.918;8.112;2022-07-29T06:02:02;2.70;;;2.20;;
69906;SDS011;57190;47.918;8.112;2022-07-29T06:04:30;2.47;;;2.28;;
69906;SDS011;57190;47.918;8.112;2022-07-29T06:06:56;2.10;;;2.00;;
69906;SDS011;57190;47.918;8.112;2022-07-29T06:09:22;2.40;;;2.22;;
69906;SDS011;57190;47.918;8.112;2022-07-29T06:11:47;2.63;;;2.13;;
69906;SDS011;57190;47.918;8.112;2022-07-29T06:14:13;2.33;;;1.88;;
69906;SDS011;57190;47.918;8.112;2022-07-29T06:16:39;2.10;;;2.00;;
69906;SDS011;57190;47.918;8.112;2022-07-29T06:19:05;2.30;;;2.10;;
69906;SDS011;57190;47.918;8.112;2022-07-29T06:21:30;2.00;;;1.90;;
69906;SDS011;57190;47.918;8.112;2022-07-29T06:23:56;1.88;;;1.77;;
69906;SDS011;57190;47.918;8.112;2022-07-29T06:26:21;2.25;;;2.05;;
69906;SDS011;57190;47.918;8.112;2022-07-29T06:28:48;1.98;;;1.88;;
69906;SDS011;57190;47.918;8.112;2022-07-29T06:31:13;1.90;;;1.80;;
69906;SDS011;57190;47.918;8.112;2022-07-29T06:33:39;2.15;;;1.70;;
69906;SDS011;57190;47.918;8.112;2022-07-29T06:36:05;2.10;;;1.90;;
69906;SDS011;57190;47.918;8.112;2022-07-29T06:38:31;2.30;;;2.10;;
69906;SDS011;57190;47.918;8.112;2022-07-29T06:40:58;2.70;;;2.13;;
69906;SDS011;57190;47.918;8.112;2022-07-29T06:43:28;5.63;;;3.03;;
69906;SDS011;57190;47.918;8.112;2022-07-29T06:45:57;2.95;;;2.50;;
69906;SDS011;57190;47.918;8.112;2022-07-29T06:48:29;3.05;;;2.72;;
69906;SDS011;57190;47.918;8.112;2022-07-29T06:50:55;3.25;;;2.50;;
69906;SDS011;57190;47.918;8.112;2022-07-29T06:53:21;2.67;;;2.38;;
69906;SDS011;57190;47.918;8.112;2022-07-29T06:55:46;2.55;;;2.40;;
69906;SDS011;57190;47.918;8.112;2022-07-29T06:58:12;3.13;;;2.92;;
69906;SDS011;57190;47.918;8.112;2022-07-29T07:00:39;3.28;;;3.00;;
69906;SDS011;57190;47.918;8.112;2022-07-29T07:03:05;3.92;;;2.83;;
69906;SDS011;57190;47.918;8.112;2022-07-29T07:05:31;2.85;;;2.60;;
69906;SDS011;57190;47.918;8.112;2022-07-29T07:07:56;2.70;;;2.50;;
69906;SDS011;57190;47.918;8.112;2022-07-29T07:10:22;3.05;;;2.85;;
69906;SDS011;57190;47.918;8.112;2022-07-29T07:12:47;2.67;;;2.42;;
69906;SDS011;57190;47.918;8.112;2022-07-29T07:15:13;2.72;;;2.53;;
69906;SDS011;57190;47.918;8.112;2022-07-29T07:17:38;3.72;;;2.30;;
69906;SDS011;57190;47.918;8.112;2022-07-29T07:20:04;2.28;;;1.80;;
69906;SDS011;57190;47.918;8.112;2022-07-29T07:22:31;1.92;;;1.83;;
69906;SDS011;57190;47.918;8.112;2022-07-29T07:24:57;2.05;;;1.95;;
69906;SDS011;57190;47.918;8.112;2022-07-29T07:27:22;1.70;;;1.60;;
69906;SDS011;57190;47.918;8.112;2022-07-29T07:29:48;3.28;;;1.73;;
69906;SDS011;57190;47.918;8.112;2022-07-29T07:32:13;2.03;;;1.55;;
69906;SDS011;57190;47.918;8.112;2022-07-29T07:34:41;1.75;;;1.65;;
69906;SDS011;57190;47.918;8.112;2022-07-29T07:37:08;1.88;;;1.77;;
69906;SDS011;57190;47.918;8.112;2022-07-29T07:39:34;2.33;;;1.88;;
69906;SDS011;57190;47.918;8.112;2022-07-29T07:41:59;1.98;;;1.77;;
69906;SDS011;57190;47.918;8.112;2022-07-29T07:44:25;2.20;;;2.03;;
69906;SDS011;57190;47.918;8.112;2022-07-29T07:46:50;1.83;;;1.73;;
69906;SDS011;57190;47.918;8.112;2022-07-29T07:49:16;2.65;;;2.20;;
69906;SDS011;57190;47.918;8.112;2022-07-29T07:51:41;2.65;;;1.92;;
69906;SDS011;57190;47.918;8.112;2022-07-29T07:54:07;1.88;;;1.77;;
69906;SDS011;57190;47.918;8.112;2022-07-29T07:56:32;2.33;;;1.90;;
69906;SDS011;57190;47.918;8.112;2022-07-29T07:58:58;2.55;;;1.90;;
69906;SDS011;57190;47.918;8.112;2022-07-29T08:01:23;3.42;;;1.90;;
69906;SDS011;57190;47.918;8.112;2022-07-29T08:03:49;2.85;;;2.10;;
69906;SDS011;57190;47.918;8.112;2022-07-29T08:06:15;1.92;;;1.83;;
69906;SDS011;57190;47.918;8.112;2022-07-29T08:08:41;1.98;;;1.88;;
69906;SDS011;57190;47.918;8.112;2022-07-29T08:11:07;2.00;;;1.90;;
69906;SDS011;57190;47.918;8.112;2022-07-29T08:13:32;1.90;;;1.73;;
69906;SDS011;57190;47.918;8.112;2022-07-29T08:15:58;2.15;;;1.95;;
69906;SDS011;57190;47.918;8.112;2022-07-29T08:18:26;2.20;;;1.88;;
69906;SDS011;57190;47.918;8.112;2022-07-29T08:20:53;2.40;;;1.77;;
69906;SDS011;57190;47.918;8.112;2022-07-29T08:23:19;1.75;;;1.65;;
69906;SDS011;57190;47.918;8.112;2022-07-29T08:25:45;2.28;;;1.63;;
69906;SDS011;57190;47.918;8.112;2022-07-29T08:28:11;2.25;;;2.05;;
69906;SDS011;57190;47.918;8.112;2022-07-29T08:30:36;3.28;;;2.00;;
69906;SDS011;57190;47.918;8.112;2022-07-29T08:33:02;3.60;;;2.03;;
69906;SDS011;57190;47.918;8.112;2022-07-29T08:35:27;2.03;;;1.92;;
69906;SDS011;57190;47.918;8.112;2022-07-29T08:37:53;1.73;;;1.63;;
69906;SDS011;57190;47.918;8.112;2022-07-29T08:40:20;2.85;;;1.90;;
69906;SDS011;57190;47.918;8.112;2022-07-29T08:42:45;2.33;;;1.58;;
69906;SDS011;57190;47.918;8.112;2022-07-29T08:45:11;2.47;;;1.67;;
69906;SDS011;57190;47.918;8.112;2022-07-29T08:47:40;2.25;;;1.55;;
69906;SDS011;57190;47.918;8.112;2022-07-29T08:50:07;1.60;;;1.50;;
69906;SDS011;57190;47.918;8.112;2022-07-29T08:52:35;2.83;;;1.73;;
69906;SDS011;57190;47.918;8.112;2022-07-29T08:55:03;4.47;;;1.75;;
69906;SDS011;57190;47.918;8.112;2022-07-29T08:57:30;2.00;;;1.90;;
69906;SDS011;57190;47.918;8.112;2022-07-29T08:59:57;1.92;;;1.80;;
69906;SDS011;57190;47.918;8.112;2022-07-29T09:02:25;2.47;;;1.75;;
69906;SDS011;57190;47.918;8.112;2022-07-29T09:04:56;3.08;;;1.85;;
69906;SDS011;57190;47.918;8.112;2022-07-29T09:07:25;2.40;;;2.10;;
69906;SDS011;57190;47.918;8.112;2022-07-29T09:09:50;2.10;;;1.90;;
69906;SDS011;57190;47.918;8.112;2022-07-29T09:12:16;2.28;;;2.08;;
69906;SDS011;57190;47.918;8.112;2022-07-29T09:14:43;1.92;;;1.70;;
69906;SDS011;57190;47.918;8.112;2022-07-29T09:17:08;3.45;;;1.65;;
69906;SDS011;57190;47.918;8.112;2022-07-29T09:19:34;2.10;;;1.92;;
69906;SDS011;57190;47.918;8.112;2022-07-29T09:22:06;2.13;;;2.03;;
69906;SDS011;57190;47.918;8.112;2022-07-29T09:27:08;2.08;;;1.90;;
69906;SDS011;57190;47.918;8.112;2022-07-29T09:32:53;2.10;;;1.90;;
69906;SDS011;57190;47.918;8.112;2022-07-29T09:35:21;2.63;;;1.85;;
69906;SDS011;57190;47.918;8.112;2022-07-29T09:37:49;8.20;;;2.15;;
69906;SDS011;57190;47.918;8.112;2022-07-29T09:40:16;2.20;;;2.03;;
69906;SDS011;57190;47.918;8.112;2022-07-29T09:42:43;2.70;;;2.30;;
69906;SDS011;57190;47.918;8.112;2022-07-29T09:45:09;3.05;;;2.35;;
69906;SDS011;57190;47.918;8.112;2022-07-29T09:47:43;2.95;;;2.08;;
69906;SDS011;57190;47.918;8.112;2022-07-29T09:50:11;3.08;;;2.10;;
69906;SDS011;57190;47.918;8.112;2022-07-29T09:55:31;3.78;;;2.00;;
69906;SDS011;57190;47.918;8.112;2022-07-29T09:58:16;3.13;;;2.05;;
69906;SDS011;57190;47.918;8.112;2022-07-29T10:00:42;4.45;;;2.22;;
69906;SDS011;57190;47.918;8.112;2022-07-29T10:03:09;2.67;;;2.20;;
69906;SDS011;57190;47.918;8.112;2022-07-29T10:05:34;2.13;;;1.98;;
69906;SDS011;57190;47.918;8.112;2022-07-29T10:08:00;2.35;;;2.17;;
69906;SDS011;57190;47.918;8.112;2022-07-29T10:10:31;2.15;;;1.95;;
69906;SDS011;57190;47.918;8.112;2022-07-29T10:13:02;2.28;;;2.08;;
69906;SDS011;57190;47.918;8.112;2022-07-29T10:15:34;3.20;;;2.22;;
69906;SDS011;57190;47.918;8.112;2022-07-29T10:18:04;2.90;;;2.40;;
69906;SDS011;57190;47.918;8.112;2022-07-29T10:20:30;2.35;;;2.10;;
69906;SDS011;57190;47.918;8.112;2022-07-29T10:22:56;2.20;;;2.00;;
69906;SDS011;57190;47.918;8.112;2022-07-29T10:25:23;2.40;;;2.30;;
69906;SDS011;57190;47.918;8.112;2022-07-29T10:27:49;2.65;;;2.45;;
69906;SDS011;57190;47.918;8.112;2022-07-29T10:30:20;2.10;;;2.00;;
69906;SDS011;57190;47.918;8.112;2022-07-29T10:33:02;2.35;;;2.15;;
69906;SDS011;57190;47.918;8.112;2022-07-29T10:43:46;2.70;;;2.50;;
69906;SDS011;57190;47.918;8.112;2022-07-29T10:46:14;2.42;;;1.98;;
69906;SDS011;57190;47.918;8.112;2022-07-29T10:59:39;2.92;;;2.65;;
69906;SDS011;57190;47.918;8.112;2022-07-29T11:02:48;2.67;;;2.47;;
69906;SDS011;57190;47.918;8.112;2022-07-29T11:04:58;3.78;;;3.10;;
69906;SDS011;57190;47.918;8.112;2022-07-29T11:07:26;2.63;;;2.42;;
69906;SDS011;57190;47.918;8.112;2022-07-29T11:15:04;3.60;;;2.72;;
69906;SDS011;57190;47.918;8.112;2022-07-29T11:28:48;2.80;;;2.60;;
69906;SDS011;57190;47.918;8.112;2022-07-29T11:31:41;2.92;;;2.72;;
69906;SDS011;57190;47.918;8.112;2022-07-29T11:34:25;2.65;;;2.25;;
69906;SDS011;57190;47.918;8.112;2022-07-29T11:39:31;3.08;;;2.75;;
69906;SDS011;57190;47.918;8.112;2022-07-29T11:44:59;2.80;;;2.60;;
69906;SDS011;57190;47.918;8.112;2022-07-29T11:47:27;2.75;;;2.55;;
69906;SDS011;57190;47.918;8.112;2022-07-29T11:49:55;2.70;;;2.47;;
69906;SDS011;57190;47.918;8.112;2022-07-29T11:52:22;3.70;;;2.70;;
69906;SDS011;57190;47.918;8.112;2022-07-29T11:54:49;4.50;;;2.88;;
69906;SDS011;57190;47.918;8.112;2022-07-29T11:57:18;2.92;;;2.72;;
69906;SDS011;57190;47.918;8.112;2022-07-29T11:59:45;3.00;;;2.80;;
69906;SDS011;57190;47.918;8.112;2022-07-29T12:02:13;3.17;;;2.90;;
69906;SDS011;57190;47.918;8.112;2022-07-29T12:07:15;2.47;;;2.25;;
69906;SDS011;57190;47.918;8.112;2022-07-29T12:09:49;2.53;;;2.33;;
69906;SDS011;57190;47.918;8.112;2022-07-29T12:12:16;2.78;;;2.55;;
69906;SDS011;57190;47.918;8.112;2022-07-29T12:14:42;4.82;;;2.42;;
69906;SDS011;57190;47.918;8.112;2022-07-29T12:17:24;3.70;;;2.30;;
69906;SDS011;57190;47.918;8.112;2022-07-29T12:19:53;2.42;;;2.22;;
69906;SDS011;57190;47.918;8.112;2022-07-29T12:22:26;3.03;;;2.38;;
69906;SDS011;57190;47.918;8.112;2022-07-29T12:24:54;3.08;;;2.75;;
69906;SDS011;57190;47.918;8.112;2022-07-29T12:27:20;4.72;;;2.75;;
69906;SDS011;57190;47.918;8.112;2022-07-29T12:29:55;4.93;;;2.67;;
69906;SDS011;57190;47.918;8.112;2022-07-29T12:32:22;2.80;;;2.55;;
69906;SDS011;57190;47.918;8.112;2022-07-29T12:34:48;2.80;;;2.15;;
69906;SDS011;57190;47.918;8.112;2022-07-29T12:37:14;2.22;;;2.03;;
69906;SDS011;57190;47.918;8.112;2022-07-29T12:39:40;3.45;;;2.60;;
69906;SDS011;57190;47.918;8.112;2022-07-29T12:42:12;2.20;;;2.00;;
69906;SDS011;57190;47.918;8.112;2022-07-29T12:44:48;2.35;;;2.25;;
69906;SDS011;57190;47.918;8.112;2022-07-29T12:47:15;3.40;;;2.20;;
69906;SDS011;57190;47.918;8.112;2022-07-29T12:49:43;3.47;;;2.70;;
69906;SDS011;57190;47.918;8.112;2022-07-29T12:54:57;2.92;;;2.72;;
69906;SDS011;57190;47.918;8.112;2022-07-29T12:57:23;2.58;;;2.38;;
69906;SDS011;57190;47.918;8.112;2022-07-29T13:00:06;3.83;;;2.40;;
69906;SDS011;57190;47.918;8.112;2022-07-29T13:02:35;3.20;;;2.50;;
69906;SDS011;57190;47.918;8.112;2022-07-29T13:05:02;3.35;;;2.45;;
69906;SDS011;57190;47.918;8.112;2022-07-29T13:07:30;2.50;;;2.30;;
69906;SDS011;57190;47.918;8.112;2022-07-29T13:10:15;2.60;;;2.40;;
69906;SDS011;57190;47.918;8.112;2022-07-29T13:13:04;2.60;;;2.40;;
69906;SDS011;57190;47.918;8.112;2022-07-29T13:15:30;2.63;;;2.42;;
69906;SDS011;57190;47.918;8.112;2022-07-29T13:17:56;2.67;;;2.47;;
69906;SDS011;57190;47.918;8.112;2022-07-29T13:20:26;3.30;;;2.65;;
69906;SDS011;57190;47.918;8.112;2022-07-29T13:22:55;2.78;;;2.58;;
69906;SDS011;57190;47.918;8.112;2022-07-29T13:25:28;2.53;;;2.33;;
69906;SDS011;57190;47.918;8.112;2022-07-29T13:27:57;2.95;;;2.70;;
69906;SDS011;57190;47.918;8.112;2022-07-29T13:30:24;4.15;;;2.60;;
69906;SDS011;57190;47.918;8.112;2022-07-29T13:32:50;4.35;;;3.38;;
69906;SDS011;57190;47.918;8.112;2022-07-29T13:35:16;2.65;;;2.55;;
69906;SDS011;57190;47.918;8.112;2022-07-29T13:37:43;2.70;;;2.42;;
69906;SDS011;57190;47.918;8.112;2022-07-29T13:40:09;2.65;;;2.45;;
69906;SDS011;57190;47.918;8.112;2022-07-29T13:42:35;4.00;;;2.67;;
69906;SDS011;57190;47.918;8.112;2022-07-29T13:45:02;3.10;;;2.55;;
69906;SDS011;57190;47.918;8.112;2022-07-29T13:47:28;2.28;;;2.17;;
69906;SDS011;57190;47.918;8.112;2022-07-29T13:49:54;3.42;;;3.10;;
69906;SDS011;57190;47.918;8.112;2022-07-29T13:52:20;3.50;;;2.60;;
69906;SDS011;57190;47.918;8.112;2022-07-29T13:54:46;5.65;;;2.53;;
69906;SDS011;57190;47.918;8.112;2022-07-29T13:57:12;2.17;;;2.08;;
69906;SDS011;57190;47.918;8.112;2022-07-29T13:59:41;2.55;;;2.35;;
69906;SDS011;57190;47.918;8.112;2022-07-29T14:02:08;2.08;;;1.92;;
69906;SDS011;57190;47.918;8.112;2022-07-29T14:04:35;2.17;;;1.98;;
69906;SDS011;57190;47.918;8.112;2022-07-29T14:07:01;3.08;;;2.45;;
69906;SDS011;57190;47.918;8.112;2022-07-29T14:09:26;2.60;;;2.40;;
69906;SDS011;57190;47.918;8.112;2022-07-29T14:11:52;2.40;;;2.20;;
69906;SDS011;57190;47.918;8.112;2022-07-29T14:14:18;2.15;;;1.95;;
69906;SDS011;57190;47.918;8.112;2022-07-29T14:16:44;2.58;;;2.38;;
69906;SDS011;57190;47.918;8.112;2022-07-29T14:19:10;2.05;;;1.80;;
69906;SDS011;57190;47.918;8.112;2022-07-29T14:21:36;3.70;;;2.20;;
69906;SDS011;57190;47.918;8.112;2022-07-29T14:24:02;2.92;;;2.10;;
69906;SDS011;57190;47.918;8.112;2022-07-29T14:26:28;2.05;;;1.95;;
69906;SDS011;57190;47.918;8.112;2022-07-29T14:28:53;1.88;;;1.77;;
69906;SDS011;57190;47.918;8.112;2022-07-29T14:31:19;1.90;;;1.80;;
69906;SDS011;57190;47.918;8.112;2022-07-29T14:33:45;2.47;;;1.98;;
69906;SDS011;57190;47.918;8.112;2022-07-29T14:36:10;2.85;;;2.10;;
69906;SDS011;57190;47.918;8.112;2022-07-29T14:38:36;2.80;;;2.30;;
69906;SDS011;57190;47.918;8.112;2022-07-29T14:41:02;2.22;;;1.98;;
69906;SDS011;57190;47.918;8.112;2022-07-29T14:43:28;2.00;;;1.73;;
69906;SDS011;57190;47.918;8.112;2022-07-29T14:45:54;3.30;;;2.00;;
69906;SDS011;57190;47.918;8.112;2022-07-29T14:48:19;2.97;;;2.17;;
69906;SDS011;57190;47.918;8.112;2022-07-29T14:50:45;1.98;;;1.80;;
69906;SDS011;57190;47.918;8.112;2022-07-29T14:53:10;3.10;;;2.05;;
69906;SDS011;57190;47.918;8.112;2022-07-29T14:55:38;2.40;;;2.20;;
69906;SDS011;57190;47.918;8.112;2022-07-29T14:58:04;2.22;;;2.10;;
69906;SDS011;57190;47.918;8.112;2022-07-29T15:00:30;1.98;;;1.88;;
69906;SDS011;57190;47.918;8.112;2022-07-29T15:02:57;2.20;;;1.63;;
69906;SDS011;57190;47.918;8.112;2022-07-29T15:05:24;5.38;;;1.80;;
69906;SDS011;57190;47.918;8.112;2022-07-29T15:07:50;4.18;;;1.85;;
69906;SDS011;57190;47.918;8.112;2022-07-29T15:10:16;3.30;;;1.83;;
69906;SDS011;57190;47.918;8.112;2022-07-29T15:12:41;2.30;;;1.65;;
69906;SDS011;57190;47.918;8.112;2022-07-29T15:15:07;2.47;;;1.77;;
69906;SDS011;57190;47.918;8.112;2022-07-29T15:17:33;1.85;;;1.75;;
69906;SDS011;57190;47.918;8.112;2022-07-29T15:19:59;1.90;;;1.80;;
69906;SDS011;57190;47.918;8.112;2022-07-29T15:22:25;1.85;;;1.60;;
69906;SDS011;57190;47.918;8.112;2022-07-29T15:24:50;1.83;;;1.73;;
69906;SDS011;57190;47.918;8.112;2022-07-29T15:27:16;1.90;;;1.70;;
69906;SDS011;57190;47.918;8.112;2022-07-29T15:29:41;2.35;;;1.70;;
69906;SDS011;57190;47.918;8.112;2022-07-29T15:32:07;2.63;;;1.70;;
69906;SDS011;57190;47.918;8.112;2022-07-29T15:34:33;1.77;;;1.67;;
69906;SDS011;57190;47.918;8.112;2022-07-29T15:37:00;2.00;;;1.80;;
69906;SDS011;57190;47.918;8.112;2022-07-29T15:39:26;5.38;;;2.47;;
69906;SDS011;57190;47.918;8.112;2022-07-29T15:41:51;2.13;;;1.65;;
69906;SDS011;57190;47.918;8.112;2022-07-29T15:44:17;1.80;;;1.70;;
69906;SDS011;57190;47.918;8.112;2022-07-29T15:46:43;2.10;;;1.75;;
69906;SDS011;57190;47.918;8.112;2022-07-29T15:49:27;2.67;;;1.80;;
69906;SDS011;57190;47.918;8.112;2022-07-29T15:51:59;2.65;;;2.13;;